Time;durP1;ratioP1;P1;durP2;ratioP2;P2;SDS_P1;SDS_P2;PMS_P1;PMS_P2;Temp;Humidity;BMP_temperature;BMP_pressure;BME280_temperature;BME280_humidity;BME280_pressure;Samples;Min_cycle;Max_cycle;Signal;HPM_P1;HPM_P2
2022/04/03 00:00:28;;;;;;;14.43;8.90;;;;;;;-1.15;95.78;96581.97;2067678;28;20207;-64
2022/04/03 00:01:30;;;;;;;14.93;9.90;;;;;;;-1.15;95.66;96582.78;2068722;28;20229;-64
2022/04/03 00:02:32;;;;;;;18.65;8.57;;;;;;;-1.20;95.79;96574.34;2068102;28;20205;-63
2022/04/03 00:03:34;;;;;;;13.25;7.82;;;;;;;-1.26;95.97;96566.75;2068148;28;20205;-63
2022/04/03 00:04:35;;;;;;;16.77;9.15;;;;;;;-1.15;95.89;96582.78;2067028;28;20310;-64
2022/04/03 00:05:43;;;;;;;12.60;8.07;;;;;;;-1.30;95.31;96583.13;2068145;28;20206;-63
2022/04/03 00:06:44;;;;;;;16.13;8.25;;;;;;;-1.34;96.09;96584.91;2066065;28;20204;-64
2022/04/03 00:07:46;;;;;;;12.50;8.55;;;;;;;-1.31;95.83;96578.91;2066206;28;20220;-63
2022/04/03 00:08:48;;;;;;;14.20;8.20;;;;;;;-1.32;96.25;96583.16;2066508;28;20689;-63
2022/04/03 00:09:50;;;;;;;13.65;8.10;;;;;;;-1.22;96.03;96588.94;2068773;28;20201;-64
2022/04/03 00:10:51;;;;;;;13.68;9.20;;;;;;;-1.31;95.91;96571.19;2068154;28;20225;-63
2022/04/03 00:11:53;;;;;;;11.10;8.23;;;;;;;-1.22;95.78;96591.50;2067888;28;20637;-63
2022/04/03 00:12:54;;;;;;;13.38;8.18;;;;;;;-1.18;95.72;96584.59;2069730;28;20190;-63
2022/04/03 00:13:56;;;;;;;13.02;8.02;;;;;;;-1.11;95.82;96589.56;2063114;28;20201;-63
2022/04/03 00:14:58;;;;;;;10.35;7.70;;;;;;;-0.95;95.00;96586.63;2066180;28;20202;-63
2022/04/03 00:15:59;;;;;;;14.35;8.15;;;;;;;-1.21;94.09;96581.22;2068172;28;20380;-63
2022/04/03 00:17:01;;;;;;;21.77;7.78;;;;;;;-1.08;94.51;96578.34;2067287;28;20196;-63
2022/04/03 00:18:02;;;;;;;10.82;7.80;;;;;;;-1.13;94.60;96573.31;2069356;28;20210;-63
2022/04/03 00:19:04;;;;;;;12.70;8.25;;;;;;;-1.08;94.69;96586.06;2067697;28;20207;-63
2022/04/03 00:20:05;;;;;;;12.52;8.23;;;;;;;-1.13;94.64;96590.47;2068213;28;20281;-63
2022/04/03 00:21:08;;;;;;;12.07;7.95;;;;;;;-1.21;95.35;96586.34;2066163;28;20228;-63
2022/04/03 00:22:13;;;;;;;13.45;7.60;;;;;;;-1.28;95.23;96565.97;2068021;28;20204;-63
2022/04/03 00:23:15;;;;;;;11.57;7.32;;;;;;;-1.27;95.85;96577.94;2070058;28;20198;-63
2022/04/03 00:24:17;;;;;;;15.30;8.70;;;;;;;-1.12;95.73;96593.00;2069517;28;20624;-63
2022/04/03 00:25:19;;;;;;;14.55;7.97;;;;;;;-1.15;95.47;96577.66;2067474;28;20289;-63
2022/04/03 00:26:21;;;;;;;15.45;8.60;;;;;;;-1.14;95.76;96587.03;2068260;28;20236;-63
2022/04/03 00:27:22;;;;;;;10.80;7.60;;;;;;;-1.66;96.48;96589.03;2067066;28;20200;-63
2022/04/03 00:28:26;;;;;;;11.85;8.57;;;;;;;-1.48;97.24;96590.34;2067986;28;20203;-63
2022/04/03 00:29:28;;;;;;;14.13;7.40;;;;;;;-1.24;96.85;96590.72;2065374;28;20200;-63
2022/04/03 00:30:29;;;;;;;15.40;8.70;;;;;;;-1.23;97.08;96585.53;2067910;28;20312;-63
2022/04/03 00:31:31;;;;;;;10.95;6.70;;;;;;;-1.15;95.79;96587.94;2067509;28;20203;-63
2022/04/03 00:32:33;;;;;;;12.82;7.75;;;;;;;-1.17;95.85;96584.56;2067734;28;20197;-63
2022/04/03 00:33:34;;;;;;;14.10;8.45;;;;;;;-1.14;95.86;96589.63;2068668;28;20204;-63
2022/04/03 00:34:36;;;;;;;12.57;8.40;;;;;;;-1.32;95.93;96595.19;2067223;28;20557;-63
2022/04/03 00:35:38;;;;;;;14.57;8.25;;;;;;;-1.22;96.74;96592.34;2068366;28;20227;-63
2022/04/03 00:36:39;;;;;;;19.25;9.32;;;;;;;-1.16;96.30;96593.94;2069235;28;20591;-63
2022/04/03 00:37:41;;;;;;;14.35;9.05;;;;;;;-1.15;96.36;96595.66;2066904;28;20207;-63
2022/04/03 00:38:42;;;;;;;15.63;8.10;;;;;;;-1.32;96.15;96590.88;2069502;28;20201;-63
2022/04/03 00:39:44;;;;;;;11.73;8.25;;;;;;;-1.31;97.18;96590.00;2068044;28;20662;-63
2022/04/03 00:40:47;;;;;;;17.02;9.43;;;;;;;-1.32;97.68;96595.19;2066476;28;20221;-63
2022/04/03 00:41:48;;;;;;;16.20;9.35;;;;;;;-1.34;96.73;96594.38;2067412;28;20200;-63
2022/04/03 00:42:50;;;;;;;14.52;9.35;;;;;;;-1.31;97.41;96596.88;2067113;28;20201;-63
2022/04/03 00:43:51;;;;;;;18.15;8.88;;;;;;;-1.22;96.78;96592.34;2068559;28;20208;-63
2022/04/03 00:44:53;;;;;;;14.15;8.18;;;;;;;-1.22;96.67;96588.94;2069877;28;20213;-63
2022/04/03 00:45:55;;;;;;;12.73;8.43;;;;;;;-1.23;96.47;96594.97;2065640;28;20225;-63
2022/04/03 00:46:59;;;;;;;12.45;8.25;;;;;;;-1.24;95.59;96588.97;2068731;28;20203;-63
2022/04/03 00:48:01;;;;;;;14.60;8.88;;;;;;;-1.17;96.22;96594.84;2068651;28;20209;-63
2022/04/03 00:49:03;;;;;;;23.30;8.65;;;;;;;-1.23;95.96;96595.81;2068245;28;20203;-63
2022/04/03 00:50:06;;;;;;;11.68;8.10;;;;;;;-1.29;95.81;96585.69;2069863;28;20307;-63
2022/04/03 00:51:07;;;;;;;13.02;8.90;;;;;;;-1.44;96.90;96594.56;2067958;28;20220;-63
2022/04/03 00:52:08;;;;;;;12.20;8.07;;;;;;;-1.62;96.59;96595.78;2065601;28;20199;-63
2022/04/03 00:53:10;;;;;;;18.25;8.07;;;;;;;-1.60;97.67;96590.63;2069285;28;20210;-63
2022/04/03 00:54:12;;;;;;;19.23;9.05;;;;;;;-1.51;97.83;96593.00;2067560;28;20255;-63
2022/04/03 00:55:14;;;;;;;12.55;8.50;;;;;;;-1.54;97.58;96589.66;2067377;28;20198;-63
2022/04/03 00:56:16;;;;;;;19.02;9.05;;;;;;;-1.44;97.63;96597.13;2066710;28;20721;-63
2022/04/03 00:57:19;;;;;;;19.27;9.63;;;;;;;-1.38;96.95;96585.03;2068754;28;20209;-63
2022/04/03 00:58:22;;;;;;;13.13;7.88;;;;;;;-1.34;96.67;96596.94;2065867;28;20438;-63
2022/04/03 00:59:23;;;;;;;15.75;8.73;;;;;;;-1.33;96.85;96591.75;2067305;28;20705;-63
2022/04/03 01:00:25;;;;;;;17.17;9.48;;;;;;;-1.32;97.22;96598.59;2066244;28;20202;-62
2022/04/03 01:01:27;;;;;;;18.65;10.13;;;;;;;-1.60;96.80;96567.50;2069328;28;20202;-63
2022/04/03 01:02:30;;;;;;;16.25;10.23;;;;;;;-1.41;96.73;96599.63;2070376;28;20210;-63
2022/04/03 01:03:32;;;;;;;15.73;10.15;;;;;;;-1.34;97.39;96591.78;2070821;28;20212;-63
2022/04/03 01:04:37;;;;;;;15.88;10.15;;;;;;;-1.57;97.18;96585.41;2068685;28;20341;-63
2022/04/03 01:05:38;;;;;;;13.98;9.60;;;;;;;-1.46;98.13;96595.47;2069165;28;20198;-63
2022/04/03 01:06:40;;;;;;;18.60;10.35;;;;;;;-1.37;97.75;96602.13;2067012;28;20197;-63
2022/04/03 01:07:43;;;;;;;20.30;10.60;;;;;;;-1.44;98.04;96596.28;2069969;28;20653;-63
2022/04/03 01:08:45;;;;;;;15.45;10.38;;;;;;;-1.42;97.85;96594.53;2069714;28;20196;-63
2022/04/03 01:09:46;;;;;;;17.33;9.82;;;;;;;-1.49;97.99;96593.81;2069874;28;20220;-63
2022/04/03 01:10:48;;;;;;;18.48;11.40;;;;;;;-1.36;97.59;96590.97;2075162;28;20227;-63
2022/04/03 01:11:49;;;;;;;15.63;11.23;;;;;;;-1.50;97.62;96593.84;2077869;28;20211;-63
2022/04/03 01:12:51;;;;;;;15.00;11.00;;;;;;;-1.64;97.91;96578.72;2070061;28;20202;-63
2022/04/03 01:13:52;;;;;;;18.70;11.52;;;;;;;-1.45;98.11;96598.00;2068672;28;20207;-63
2022/04/03 01:14:54;;;;;;;16.60;10.85;;;;;;;-1.43;98.08;96593.69;2070380;28;20207;-63
2022/04/03 01:15:59;;;;;;;18.40;11.00;;;;;;;-1.47;97.56;96583.50;2069967;28;20221;-63
2022/04/03 01:17:02;;;;;;;19.25;11.65;;;;;;;-1.36;97.57;96604.66;2070182;28;20381;-63
2022/04/03 01:18:04;;;;;;;15.82;10.93;;;;;;;-1.37;97.24;96591.84;2070873;28;20206;-63
2022/04/03 01:19:06;;;;;;;17.60;11.02;;;;;;;-1.39;97.58;96602.19;2069842;28;20223;-63
2022/04/03 01:20:08;;;;;;;19.48;11.32;;;;;;;-1.53;97.44;96594.78;2070584;28;20321;-63
2022/04/03 01:21:11;;;;;;;14.90;10.32;;;;;;;-1.54;97.48;96600.78;2068457;28;20771;-64
2022/04/03 01:22:13;;;;;;;17.05;10.85;;;;;;;-1.52;97.29;96573.31;2072206;28;20703;-63
2022/04/03 01:23:15;;;;;;;18.23;10.10;;;;;;;-1.52;96.82;96568.19;2071816;28;20207;-63
2022/04/03 01:24:18;;;;;;;14.35;9.57;;;;;;;-1.32;96.29;96595.19;2068167;28;20203;-63
2022/04/03 01:25:20;;;;;;;17.17;10.82;;;;;;;-1.56;96.84;96594.81;2068363;28;20226;-63
2022/04/03 01:26:24;;;;;;;16.75;10.13;;;;;;;-1.57;97.50;96597.41;2068404;28;20231;-63
2022/04/03 01:27:25;;;;;;;18.02;10.60;;;;;;;-1.62;97.20;96594.94;2070158;28;20196;-63
2022/04/03 01:28:27;;;;;;;14.75;10.18;;;;;;;-1.68;97.21;96583.06;2070854;28;20199;-63
2022/04/03 01:29:28;;;;;;;16.35;9.75;;;;;;;-1.60;97.22;96600.91;2068520;28;20215;-63
2022/04/03 01:30:30;;;;;;;20.10;9.63;;;;;;;-1.55;97.16;96599.06;2066862;28;20696;-63
2022/04/03 01:31:31;;;;;;;17.92;11.38;;;;;;;-1.66;97.23;96578.75;2069604;28;20655;-63
2022/04/03 01:32:33;;;;;;;18.35;10.40;;;;;;;-1.48;96.98;96600.63;2071557;28;20204;-63
2022/04/03 01:33:35;;;;;;;25.50;10.80;;;;;;;-1.74;97.41;96598.63;2067897;28;20212;-63
2022/04/03 01:34:36;;;;;;;14.63;10.52;;;;;;;-1.67;97.55;96604.47;2068737;28;20206;-63
2022/04/03 01:35:38;;;;;;;17.80;10.45;;;;;;;-1.77;97.24;96577.28;2068265;28;20204;-63
2022/04/03 01:36:39;;;;;;;17.40;10.27;;;;;;;-1.62;97.43;96603.50;2069434;28;20197;-63
2022/04/03 01:37:41;;;;;;;15.35;10.63;;;;;;;-1.61;97.70;96607.78;2077185;28;20203;-63
2022/04/03 01:38:49;;;;;;;21.15;10.80;;;;;;;-1.57;97.53;96594.84;2076166;28;20290;-63
2022/04/03 01:39:50;;;;;;;19.38;10.77;;;;;;;-1.55;97.35;96596.50;2068019;28;20649;-63
2022/04/03 01:40:52;;;;;;;16.65;10.52;;;;;;;-1.47;97.21;96609.19;2068416;28;20227;-63
2022/04/03 01:41:53;;;;;;;16.05;10.35;;;;;;;-1.44;97.56;96597.13;2069281;28;20216;-63
2022/04/03 01:42:55;;;;;;;23.92;10.95;;;;;;;-1.37;97.23;96607.25;2070071;28;20217;-63
2022/04/03 01:43:56;;;;;;;13.65;9.68;;;;;;;-1.62;96.87;96582.94;2069844;28;20211;-63
2022/04/03 01:44:58;;;;;;;20.48;10.82;;;;;;;-1.77;96.75;96549.03;2069122;28;20208;-63
2022/04/03 01:46:00;;;;;;;14.35;9.18;;;;;;;-1.42;96.59;96600.50;2071466;28;20222;-63
2022/04/03 01:47:02;;;;;;;16.17;10.68;;;;;;;-1.38;96.43;96605.59;2071735;28;20203;-63
2022/04/03 01:48:05;;;;;;;14.88;10.05;;;;;;;-1.33;96.31;96593.47;2068488;28;20209;-63
2022/04/03 01:49:08;;;;;;;14.88;9.73;;;;;;;-1.33;96.04;96603.75;2069585;28;20197;-63
2022/04/03 01:50:09;;;;;;;15.35;9.52;;;;;;;-1.62;96.65;96607.78;2071965;28;20225;-63
2022/04/03 01:51:10;;;;;;;17.88;10.02;;;;;;;-1.60;97.39;96606.03;2068170;28;20715;-63
2022/04/03 01:52:12;;;;;;;14.63;9.88;;;;;;;-1.63;96.94;96590.69;2068861;28;20657;-63
2022/04/03 01:53:14;;;;;;;17.50;10.02;;;;;;;-1.54;96.90;96595.63;2068947;28;20722;-63
2022/04/03 01:54:15;;;;;;;16.88;10.70;;;;;;;-1.48;96.47;96599.78;2069345;28;20736;-63
2022/04/03 01:55:17;;;;;;;15.93;10.38;;;;;;;-1.62;97.17;96582.13;2069093;28;20200;-63
2022/04/03 01:56:19;;;;;;;18.85;10.90;;;;;;;-1.52;97.22;96601.59;2070012;28;20610;-63
2022/04/03 01:57:21;;;;;;;16.70;9.70;;;;;;;-1.66;96.96;96571.06;2068657;28;20197;-63
2022/04/03 01:58:22;;;;;;;15.23;10.63;;;;;;;-1.49;97.49;96600.66;2069106;28;20204;-63
2022/04/03 01:59:23;;;;;;;17.55;10.38;;;;;;;-1.66;96.74;96568.47;2069514;28;20205;-63
2022/04/03 02:00:26;;;;;;;20.13;10.77;;;;;;;-1.61;96.62;96601.75;2069017;28;20207;-63
2022/04/03 02:01:30;;;;;;;14.80;10.50;;;;;;;-1.54;97.24;96605.91;2080261;28;20211;-63
2022/04/03 02:02:33;;;;;;;15.88;10.25;;;;;;;-1.74;96.83;96580.63;2073822;28;20194;-63
2022/04/03 02:03:35;;;;;;;12.70;9.40;;;;;;;-1.64;96.47;96599.28;2070370;28;20195;-63
2022/04/03 02:04:36;;;;;;;16.98;9.20;;;;;;;-1.66;96.77;96606.16;2067639;28;20204;-63
2022/04/03 02:05:38;;;;;;;14.73;10.13;;;;;;;-1.73;97.21;96602.84;2068497;28;20590;-63
2022/04/03 02:06:40;;;;;;;14.45;9.48;;;;;;;-1.64;97.19;96601.84;2067496;28;20614;-63
2022/04/03 02:07:42;;;;;;;12.77;9.70;;;;;;;-1.64;96.47;96605.25;2070964;28;20203;-63
2022/04/03 02:08:43;;;;;;;13.70;9.48;;;;;;;-1.60;96.80;96600.91;2069337;28;20212;-63
2022/04/03 02:09:45;;;;;;;18.90;10.30;;;;;;;-1.57;96.81;96605.13;2076873;28;20628;-63
2022/04/03 02:10:46;;;;;;;15.52;9.85;;;;;;;-1.66;96.85;96607.00;2069200;28;20230;-63
2022/04/03 02:11:48;;;;;;;17.20;9.80;;;;;;;-1.42;96.16;96609.94;2070488;28;20195;-63
2022/04/03 02:12:49;;;;;;;18.05;10.45;;;;;;;-1.70;95.94;96605.38;2068852;28;20212;-63
2022/04/03 02:13:51;;;;;;;14.00;10.25;;;;;;;-1.56;96.65;96612.81;2069434;28;20205;-63
2022/04/03 02:14:52;;;;;;;25.52;11.15;;;;;;;-1.62;96.59;96602.66;2069009;28;20203;-63
2022/04/03 02:15:53;;;;;;;14.57;9.73;;;;;;;-1.55;97.11;96605.94;2068419;28;20249;-63
2022/04/03 02:16:56;;;;;;;14.75;9.82;;;;;;;-1.53;96.14;96601.59;2069228;28;20204;-63
2022/04/03 02:17:58;;;;;;;14.82;8.65;;;;;;;-1.54;96.25;96611.03;2067785;28;20210;-63
2022/04/03 02:18:59;;;;;;;16.73;10.35;;;;;;;-1.51;95.98;96610.13;2068413;28;20210;-63
2022/04/03 02:20:01;;;;;;;19.05;10.10;;;;;;;-1.66;96.14;96601.88;2066809;28;20199;-64
2022/04/03 02:21:03;;;;;;;18.42;10.13;;;;;;;-1.73;96.82;96591.75;2070435;28;20238;-63
2022/04/03 02:22:04;;;;;;;17.42;10.32;;;;;;;-1.72;96.99;96598.59;2066963;28;20215;-63
2022/04/03 02:23:06;;;;;;;16.95;10.07;;;;;;;-1.54;97.47;96615.34;2067776;28;20223;-63
2022/04/03 02:24:07;;;;;;;19.50;11.25;;;;;;;-1.50;96.60;96606.69;2069158;28;20223;-63
2022/04/03 02:25:11;;;;;;;14.18;9.95;;;;;;;-1.55;95.70;96604.19;2070997;28;20199;-63
2022/04/03 02:26:12;;;;;;;14.57;9.52;;;;;;;-1.50;96.32;96609.25;2066441;28;20752;-63
2022/04/03 02:27:14;;;;;;;16.98;10.60;;;;;;;-1.59;96.14;96597.44;2070584;28;20867;-63
2022/04/03 02:28:16;;;;;;;15.43;10.00;;;;;;;-1.55;96.00;96606.78;2067719;28;20200;-63
2022/04/03 02:29:18;;;;;;;20.13;10.57;;;;;;;-1.55;95.60;96611.91;2068061;28;20201;-63
2022/04/03 02:30:20;;;;;;;18.77;10.13;;;;;;;-1.50;96.14;96607.53;2068434;28;20202;-63
2022/04/03 02:31:22;;;;;;;21.05;10.70;;;;;;;-1.49;96.76;96609.25;2068162;28;20223;-63
2022/04/03 02:32:25;;;;;;;18.73;11.63;;;;;;;-1.52;96.61;96608.44;2070670;28;20209;-63
2022/04/03 02:33:26;;;;;;;15.63;10.20;;;;;;;-1.57;96.43;96590.53;2070648;28;20205;-63
2022/04/03 02:34:29;;;;;;;17.60;10.48;;;;;;;-1.30;96.40;96609.66;2069032;28;20214;-63
2022/04/03 02:35:30;;;;;;;17.55;10.85;;;;;;;-1.54;96.30;96585.34;2069720;28;20192;-63
2022/04/03 02:36:32;;;;;;;16.98;9.90;;;;;;;-1.42;96.06;96613.34;2070217;28;20198;-63
2022/04/03 02:37:35;;;;;;;16.30;11.23;;;;;;;-1.65;95.89;96597.56;2067788;28;20200;-63
2022/04/03 02:38:37;;;;;;;18.58;11.05;;;;;;;-1.63;96.18;96614.66;2069223;28;20211;-63
2022/04/03 02:39:38;;;;;;;15.68;10.68;;;;;;;-1.57;96.73;96611.09;2067503;28;20219;-63
2022/04/03 02:40:40;;;;;;;25.58;11.82;;;;;;;-1.53;96.89;96617.03;2067789;28;20201;-63
2022/04/03 02:41:41;;;;;;;17.95;10.95;;;;;;;-1.47;95.77;96612.63;2068879;28;20680;-63
2022/04/03 02:42:44;;;;;;;16.65;10.80;;;;;;;-1.51;95.68;96616.13;2069230;28;20234;-63
2022/04/03 02:43:45;;;;;;;15.77;10.50;;;;;;;-1.41;95.51;96609.06;2067718;28;20575;-63
2022/04/03 02:44:47;;;;;;;19.25;11.70;;;;;;;-1.43;95.36;96614.25;2067095;28;20207;-62
2022/04/03 02:45:48;;;;;;;21.33;11.70;;;;;;;-1.58;95.57;96609.41;2068712;28;20228;-63
2022/04/03 02:46:51;;;;;;;17.27;10.55;;;;;;;-1.58;95.87;96611.16;2066583;28;20215;-62
2022/04/03 02:47:54;;;;;;;15.65;10.75;;;;;;;-1.52;96.13;96616.16;2071476;28;20203;-63
2022/04/03 02:48:56;;;;;;;20.60;11.82;;;;;;;-1.51;95.87;96621.28;2070887;28;20196;-63
2022/04/03 02:49:57;;;;;;;19.73;10.40;;;;;;;-1.33;95.91;96622.59;2068390;28;20204;-63
2022/04/03 02:51:01;;;;;;;15.57;10.38;;;;;;;-1.43;95.89;96621.94;2067495;28;20223;-63
2022/04/03 02:52:03;;;;;;;19.30;10.20;;;;;;;-1.47;95.92;96622.91;2068279;28;20199;-63
2022/04/03 02:53:06;;;;;;;16.75;11.15;;;;;;;-1.37;95.86;96613.28;2068169;28;20243;-64
2022/04/03 02:54:07;;;;;;;19.38;11.80;;;;;;;-1.31;95.25;96625.97;2069541;28;20200;-63
2022/04/03 02:55:11;;;;;;;15.60;10.13;;;;;;;-1.42;95.17;96625.34;2061659;28;20205;-63
2022/04/03 02:56:12;;;;;;;23.70;12.15;;;;;;;-1.28;95.10;96622.50;2065747;28;20228;-62
2022/04/03 02:57:17;;;;;;;25.38;11.32;;;;;;;-1.27;95.01;96629.34;2069559;28;20200;-62
2022/04/03 02:58:19;;;;;;;16.95;10.50;;;;;;;-1.32;95.70;96626.00;2067581;28;20227;-63
2022/04/03 02:59:21;;;;;;;18.23;11.07;;;;;;;-1.46;95.96;96619.44;2068085;28;20716;-63
2022/04/03 03:00:22;;;;;;;15.70;10.38;;;;;;;-1.42;95.84;96615.91;2069353;28;20670;-63
2022/04/03 03:01:24;;;;;;;28.75;11.90;;;;;;;-1.45;94.47;96620.28;2065156;28;20230;-63
2022/04/03 03:02:25;;;;;;;16.13;11.07;;;;;;;-1.56;95.36;96620.50;2067668;28;20258;-62
2022/04/03 03:03:27;;;;;;;16.83;10.15;;;;;;;-1.49;95.06;96624.66;2069301;28;20202;-62
2022/04/03 03:04:31;;;;;;;16.20;10.27;;;;;;;-1.34;95.10;96623.47;2069077;28;20193;-63
2022/04/03 03:05:33;;;;;;;18.00;10.23;;;;;;;-1.26;95.16;96620.72;2066463;28;20214;-62
2022/04/03 03:06:35;;;;;;;17.83;10.07;;;;;;;-1.39;95.01;96612.47;2068866;28;20189;-62
2022/04/03 03:07:38;;;;;;;18.10;10.48;;;;;;;-1.43;95.46;96621.09;2068585;28;20202;-62
2022/04/03 03:08:39;;;;;;;16.65;10.15;;;;;;;-1.40;95.10;96615.91;2068530;28;20250;-63
2022/04/03 03:09:41;;;;;;;20.48;11.98;;;;;;;-1.47;95.57;96602.34;2066748;28;20208;-62
2022/04/03 03:10:43;;;;;;;17.45;9.90;;;;;;;-1.55;95.20;96606.78;2078328;28;20212;-63
2022/04/03 03:11:44;;;;;;;18.70;10.90;;;;;;;-1.48;95.37;96620.34;2079231;28;20203;-63
2022/04/03 03:12:46;;;;;;;19.73;11.20;;;;;;;-1.44;95.64;96620.25;2069084;28;20501;-62
2022/04/03 03:13:48;;;;;;;14.60;9.57;;;;;;;-1.40;94.42;96603.88;2068211;28;20197;-62
2022/04/03 03:14:50;;;;;;;16.70;10.57;;;;;;;-1.44;94.82;96602.25;2079391;28;20233;-62
2022/04/03 03:15:52;;;;;;;18.00;10.40;;;;;;;-1.34;94.45;96617.50;2078526;28;20698;-62
2022/04/03 03:16:55;;;;;;;17.25;10.40;;;;;;;-1.38;94.65;96603.84;2068235;28;20553;-63
2022/04/03 03:17:56;;;;;;;18.00;10.75;;;;;;;-1.34;95.28;96622.63;2067997;28;20257;-63
2022/04/03 03:18:58;;;;;;;16.98;10.40;;;;;;;-1.41;95.47;96621.94;2066770;28;20200;-62
2022/04/03 03:19:59;;;;;;;16.50;10.32;;;;;;;-1.48;96.09;96617.78;2069372;28;20209;-63
2022/04/03 03:21:01;;;;;;;16.63;11.13;;;;;;;-1.43;95.44;96618.50;2069312;28;20316;-62
2022/04/03 03:22:02;;;;;;;15.70;10.02;;;;;;;-1.34;95.48;96623.47;2065408;28;20676;-63
2022/04/03 03:23:04;;;;;;;18.42;10.10;;;;;;;-1.38;95.99;96614.13;2067886;28;20194;-62
2022/04/03 03:24:06;;;;;;;18.17;10.25;;;;;;;-1.44;96.13;96615.09;2068190;28;20203;-63
2022/04/03 03:25:08;;;;;;;15.38;10.10;;;;;;;-1.43;96.47;96613.38;2070046;28;20201;-63
2022/04/03 03:26:10;;;;;;;15.77;10.45;;;;;;;-1.42;96.17;96630.50;2067446;28;20220;-63
2022/04/03 03:27:11;;;;;;;18.17;11.07;;;;;;;-1.59;95.86;96597.44;2067505;28;20204;-63
2022/04/03 03:28:13;;;;;;;17.65;11.18;;;;;;;-1.51;96.11;96622.97;2069980;28;20560;-63
2022/04/03 03:29:15;;;;;;;13.85;9.57;;;;;;;-1.51;95.89;96612.69;2068065;28;20193;-63
2022/04/03 03:30:17;;;;;;;17.23;10.52;;;;;;;-1.43;95.59;96624.53;2078518;28;20198;-63
2022/04/03 03:31:19;;;;;;;14.05;10.23;;;;;;;-1.54;95.88;96623.06;2078711;28;20222;-63
2022/04/03 03:32:21;;;;;;;17.40;10.85;;;;;;;-1.55;95.96;96623.91;2068915;28;20200;-62
2022/04/03 03:33:23;;;;;;;19.00;10.80;;;;;;;-1.48;96.12;96620.34;2070731;28;20207;-63
2022/04/03 03:34:25;;;;;;;17.13;10.88;;;;;;;-1.50;96.17;96622.94;2068035;28;20199;-63
2022/04/03 03:35:26;;;;;;;17.95;10.32;;;;;;;-1.57;96.43;96623.94;2068606;28;20197;-62
2022/04/03 03:36:28;;;;;;;14.45;9.85;;;;;;;-1.51;95.95;96622.97;2067618;28;20194;-63
2022/04/03 03:37:30;;;;;;;18.60;11.35;;;;;;;-1.61;96.11;96627.44;2068371;28;20621;-63
2022/04/03 03:38:31;;;;;;;16.60;9.43;;;;;;;-1.50;96.05;96622.94;2069346;28;20201;-62
2022/04/03 03:39:33;;;;;;;14.57;11.05;;;;;;;-1.60;95.73;96621.44;2068417;28;20595;-62
2022/04/03 03:40:38;;;;;;;17.50;10.80;;;;;;;-1.69;95.85;96603.66;2067587;28;20200;-63
2022/04/03 03:41:40;;;;;;;14.07;8.75;;;;;;;-1.58;95.90;96627.41;2070292;28;20198;-63
2022/04/03 03:42:42;;;;;;;18.70;11.10;;;;;;;-1.70;96.31;96622.53;2067913;28;20207;-62
2022/04/03 03:43:44;;;;;;;15.88;9.88;;;;;;;-1.73;96.11;96627.69;2070615;28;20195;-63
2022/04/03 03:44:46;;;;;;;16.73;11.38;;;;;;;-1.63;95.98;96630.06;2070439;28;20203;-63
2022/04/03 03:45:47;;;;;;;13.98;9.82;;;;;;;-2.15;96.70;96590.00;2070762;28;20236;-64
2022/04/03 03:46:49;;;;;;;16.77;11.75;;;;;;;-1.89;96.91;96612.59;2070542;28;20234;-63
2022/04/03 03:47:50;;;;;;;15.57;9.88;;;;;;;-1.69;96.41;96639.59;2067593;28;20573;-62
2022/04/03 03:48:52;;;;;;;16.73;9.63;;;;;;;-1.68;96.12;96629.31;2066005;28;20206;-63
2022/04/03 03:49:53;;;;;;;16.00;10.48;;;;;;;-1.59;95.56;96630.81;2068790;28;20204;-63
2022/04/03 03:50:55;;;;;;;17.48;10.95;;;;;;;-1.78;96.11;96612.41;2066219;28;20250;-63
2022/04/03 03:51:57;;;;;;;15.35;10.50;;;;;;;-1.73;95.87;96630.28;2066236;28;20286;-62
2022/04/03 03:52:58;;;;;;;20.73;11.00;;;;;;;-1.79;96.11;96632.06;2069901;28;20199;-63
2022/04/03 03:53:59;;;;;;;15.70;10.10;;;;;;;-1.70;96.21;96630.22;2065379;28;20200;-62
2022/04/03 03:55:01;;;;;;;16.50;10.68;;;;;;;-1.62;96.35;96624.03;2069696;28;20219;-63
2022/04/03 03:56:04;;;;;;;20.00;10.80;;;;;;;-1.59;96.12;96630.81;2068409;28;20722;-63
2022/04/03 03:57:06;;;;;;;16.15;10.32;;;;;;;-1.63;95.45;96634.34;2067733;28;20200;-63
2022/04/03 03:58:08;;;;;;;15.52;10.50;;;;;;;-1.71;95.82;96633.66;2068247;28;20225;-62
2022/04/03 03:59:09;;;;;;;15.43;10.70;;;;;;;-1.79;96.14;96626.94;2067465;28;20201;-63
2022/04/03 04:00:14;;;;;;;23.52;10.95;;;;;;;-1.74;96.51;96638.88;2067863;28;20279;-62
2022/04/03 04:01:15;;;;;;;15.35;10.30;;;;;;;-1.66;96.34;96630.13;2067726;28;20232;-63
2022/04/03 04:02:17;;;;;;;24.48;10.82;;;;;;;-1.66;96.17;96637.00;2069299;28;20252;-62
2022/04/03 04:03:18;;;;;;;17.38;10.85;;;;;;;-1.68;96.21;96638.75;2070391;28;20250;-63
2022/04/03 04:04:20;;;;;;;19.85;10.85;;;;;;;-1.73;95.88;96630.28;2067702;28;20195;-62
2022/04/03 04:05:22;;;;;;;18.52;10.63;;;;;;;-1.62;96.26;96636.03;2070858;28;20319;-63
2022/04/03 04:06:23;;;;;;;16.42;9.90;;;;;;;-1.64;95.92;96624.97;2070266;28;20242;-63
2022/04/03 04:07:25;;;;;;;15.52;9.90;;;;;;;-1.66;95.82;96629.28;2068474;28;20206;-62
2022/04/03 04:08:26;;;;;;;18.92;11.25;;;;;;;-1.61;95.66;96633.44;2067166;28;20207;-63
2022/04/03 04:09:28;;;;;;;15.68;10.43;;;;;;;-1.60;95.93;96642.00;2068121;28;20653;-63
2022/04/03 04:10:29;;;;;;;16.52;10.00;;;;;;;-1.68;95.49;96613.06;2068759;28;20206;-63
2022/04/03 04:11:31;;;;;;;18.13;9.68;;;;;;;-1.66;95.65;96637.00;2067987;28;20559;-62
2022/04/03 04:12:34;;;;;;;16.17;10.32;;;;;;;-1.73;95.72;96640.53;2069768;28;20200;-63
2022/04/03 04:13:35;;;;;;;19.00;9.63;;;;;;;-1.55;95.30;96640.16;2069647;28;20202;-62
2022/04/03 04:14:38;;;;;;;20.85;10.60;;;;;;;-1.57;94.74;96639.34;2068169;28;20659;-62
2022/04/03 04:15:40;;;;;;;14.82;10.50;;;;;;;-1.71;94.85;96644.75;2078561;28;20203;-62
2022/04/03 04:16:42;;;;;;;16.77;10.48;;;;;;;-1.87;95.01;96628.81;2077080;28;20191;-63
2022/04/03 04:17:45;;;;;;;17.58;10.85;;;;;;;-1.82;95.39;96637.28;2068296;28;20755;-63
2022/04/03 04:18:47;;;;;;;23.80;10.40;;;;;;;-1.69;95.23;96653.28;2067811;28;20197;-63
2022/04/03 04:19:48;;;;;;;19.17;10.90;;;;;;;-1.71;95.30;96649.06;2066470;28;20324;-63
2022/04/03 04:20:53;;;;;;;17.23;9.90;;;;;;;-1.67;95.35;96651.53;2063771;28;20497;-63
2022/04/03 04:21:54;;;;;;;15.55;10.30;;;;;;;-1.69;95.33;96652.44;2065870;28;20209;-63
2022/04/03 04:22:56;;;;;;;17.88;10.65;;;;;;;-1.53;94.78;96647.84;2068482;28;20613;-63
2022/04/03 04:23:58;;;;;;;16.02;10.15;;;;;;;-1.50;94.50;96648.63;2068862;28;20198;-63
2022/04/03 04:25:00;;;;;;;17.98;10.18;;;;;;;-1.55;94.50;96650.44;2069195;28;20697;-63
2022/04/03 04:26:02;;;;;;;17.15;11.27;;;;;;;-1.80;94.41;96650.09;2069496;28;20583;-63
2022/04/03 04:27:03;;;;;;;15.65;10.18;;;;;;;-1.88;95.24;96637.41;2069795;28;20217;-63
2022/04/03 04:28:05;;;;;;;28.38;10.98;;;;;;;-1.82;95.42;96654.41;2066892;28;20208;-63
2022/04/03 04:29:07;;;;;;;22.55;11.90;;;;;;;-2.01;95.41;96646.19;2068192;28;20238;-63
2022/04/03 04:30:10;;;;;;;23.30;11.10;;;;;;;-1.93;95.81;96649.47;2067537;28;20211;-62
2022/04/03 04:31:11;;;;;;;18.52;10.60;;;;;;;-1.90;95.55;96648.56;2066646;28;20222;-63
2022/04/03 04:32:13;;;;;;;16.85;10.88;;;;;;;-1.85;95.53;96657.88;2067636;28;20253;-63
2022/04/03 04:33:14;;;;;;;18.20;10.65;;;;;;;-1.86;95.02;96656.19;2067834;28;20218;-63
2022/04/03 04:34:17;;;;;;;21.65;10.18;;;;;;;-1.88;95.50;96657.06;2067433;28;20211;-63
2022/04/03 04:35:19;;;;;;;16.58;10.15;;;;;;;-1.89;95.42;96648.53;2068161;28;20193;-63
2022/04/03 04:36:21;;;;;;;17.15;11.05;;;;;;;-1.78;95.42;96661.19;2069964;28;20232;-63
2022/04/03 04:37:23;;;;;;;16.98;10.43;;;;;;;-1.80;95.28;96656.06;2068936;28;20552;-63
2022/04/03 04:38:26;;;;;;;15.82;10.40;;;;;;;-1.80;95.66;96655.22;2070583;28;20670;-62
2022/04/03 04:39:27;;;;;;;15.52;10.35;;;;;;;-1.64;95.92;96663.50;2067789;28;20200;-63
2022/04/03 04:40:29;;;;;;;18.73;11.05;;;;;;;-1.60;94.94;96657.41;2069203;28;20716;-63
2022/04/03 04:41:30;;;;;;;17.40;9.95;;;;;;;-1.53;95.06;96659.00;2069714;28;20205;-63
2022/04/03 04:42:32;;;;;;;22.80;9.50;;;;;;;-1.69;94.48;96637.03;2067513;28;20200;-63
2022/04/03 04:43:34;;;;;;;15.10;9.75;;;;;;;-2.01;94.85;96610.25;2069410;28;20218;-63
2022/04/03 04:44:35;;;;;;;16.67;10.18;;;;;;;-1.75;94.97;96662.84;2069298;28;20199;-63
2022/04/03 04:45:37;;;;;;;19.58;11.27;;;;;;;-1.90;95.24;96649.44;2070274;28;20199;-63